sensor_id;sensor_type;location;lat;lon;timestamp;pressure;altitude;pressure_sealevel;temperature;humidity
76762;BME280;65705;51.032;13.790;2023-03-01T00:03:31;101758.44;;;-1.01;74.99
76762;BME280;65705;51.032;13.790;2023-03-01T00:05:58;101760.44;;;-1.10;75.29
76762;BME280;65705;51.032;13.790;2023-03-01T00:08:25;101761.19;;;-1.08;75.29
76762;BME280;65705;51.032;13.790;2023-03-01T00:11:21;101766.28;;;-1.04;74.97
76762;BME280;65705;51.032;13.790;2023-03-01T00:13:47;101758.59;;;-1.06;74.61
76762;BME280;65705;51.032;13.790;2023-03-01T00:16:41;101757.84;;;-1.10;75.00
76762;BME280;65705;51.032;13.790;2023-03-01T00:19:08;101753.50;;;-1.09;75.32
76762;BME280;65705;51.032;13.790;2023-03-01T00:21:35;101753.56;;;-1.11;75.22
76762;BME280;65705;51.032;13.790;2023-03-01T00:24:01;101749.44;;;-1.16;75.13
76762;BME280;65705;51.032;13.790;2023-03-01T00:26:27;101757.13;;;-1.15;74.73
76762;BME280;65705;51.032;13.790;2023-03-01T00:28:54;101761.41;;;-1.14;75.42
76762;BME280;65705;51.032;13.790;2023-03-01T00:31:26;101760.59;;;-1.16;74.72
76762;BME280;65705;51.032;13.790;2023-03-01T00:33:55;101759.84;;;-1.19;75.15
76762;BME280;65705;51.032;13.790;2023-03-01T00:36:26;101765.16;;;-1.25;75.26
76762;BME280;65705;51.032;13.790;2023-03-01T00:38:52;101759.50;;;-1.38;75.58
76762;BME280;65705;51.032;13.790;2023-03-01T00:41:20;101756.22;;;-1.43;75.64
76762;BME280;65705;51.032;13.790;2023-03-01T00:43:46;101746.78;;;-1.42;75.89
76762;BME280;65705;51.032;13.790;2023-03-01T00:46:17;101748.38;;;-1.38;76.07
76762;BME280;65705;51.032;13.790;2023-03-01T00:48:44;101742.38;;;-1.39;75.85
76762;BME280;65705;51.032;13.790;2023-03-01T00:51:16;101738.19;;;-1.43;75.54
76762;BME280;65705;51.032;13.790;2023-03-01T00:53:43;101733.00;;;-1.41;75.92
76762;BME280;65705;51.032;13.790;2023-03-01T00:56:10;101730.44;;;-1.41;75.28
76762;BME280;65705;51.032;13.790;2023-03-01T00:58:37;101738.31;;;-1.46;75.42
76762;BME280;65705;51.032;13.790;2023-03-01T01:01:10;101745.94;;;-1.43;75.47
76762;BME280;65705;51.032;13.790;2023-03-01T01:03:55;101741.59;;;-1.41;74.67
76762;BME280;65705;51.032;13.790;2023-03-01T01:06:30;101735.13;;;-1.55;75.24
76762;BME280;65705;51.032;13.790;2023-03-01T01:08:56;101739.63;;;-1.62;75.40
76762;BME280;65705;51.032;13.790;2023-03-01T01:11:24;101742.25;;;-1.65;75.50
76762;BME280;65705;51.032;13.790;2023-03-01T01:13:51;101740.03;;;-1.77;75.75
76762;BME280;65705;51.032;13.790;2023-03-01T01:16:18;101740.03;;;-1.77;75.65
76762;BME280;65705;51.032;13.790;2023-03-01T01:18:44;101736.63;;;-1.79;76.05
76762;BME280;65705;51.032;13.790;2023-03-01T01:21:13;101733.19;;;-1.78;75.54
76762;BME280;65705;51.032;13.790;2023-03-01T01:23:40;101725.47;;;-1.78;75.54
76762;BME280;65705;51.032;13.790;2023-03-01T01:26:15;101725.16;;;-1.98;76.43
76762;BME280;65705;51.032;13.790;2023-03-01T01:28:41;101729.44;;;-1.98;76.62
76762;BME280;65705;51.032;13.790;2023-03-01T01:31:07;101723.59;;;-2.03;76.59
76762;BME280;65705;51.032;13.790;2023-03-01T01:33:33;101724.69;;;-2.12;76.95
76762;BME280;65705;51.032;13.790;2023-03-01T01:35:59;101723.97;;;-2.19;76.77
76762;BME280;65705;51.032;13.790;2023-03-01T01:38:25;101724.19;;;-2.26;76.85
76762;BME280;65705;51.032;13.790;2023-03-01T01:40:51;101719.72;;;-2.20;76.83
76762;BME280;65705;51.032;13.790;2023-03-01T01:43:26;101721.50;;;-2.22;76.94
76762;BME280;65705;51.032;13.790;2023-03-01T01:45:57;101716.47;;;-2.26;76.79
76762;BME280;65705;51.032;13.790;2023-03-01T01:49:11;101719.69;;;-2.18;76.57
76762;BME280;65705;51.032;13.790;2023-03-01T01:51:19;101724.78;;;-2.17;76.11
76762;BME280;65705;51.032;13.790;2023-03-01T01:53:48;101724.91;;;-2.21;76.31
76762;BME280;65705;51.032;13.790;2023-03-01T01:56:17;101716.25;;;-2.19;76.22
76762;BME280;65705;51.032;13.790;2023-03-01T01:58:44;101718.78;;;-2.16;76.18
76762;BME280;65705;51.032;13.790;2023-03-01T02:01:12;101713.63;;;-2.16;75.96
76762;BME280;65705;51.032;13.790;2023-03-01T02:03:39;101712.63;;;-2.10;76.03
76762;BME280;65705;51.032;13.790;2023-03-01T02:06:28;101709.97;;;-2.07;76.27
76762;BME280;65705;51.032;13.790;2023-03-01T02:08:57;101711.59;;;-2.03;75.82
76762;BME280;65705;51.032;13.790;2023-03-01T02:11:25;101709.00;;;-2.03;76.02
76762;BME280;65705;51.032;13.790;2023-03-01T02:13:52;101705.59;;;-2.03;75.79
76762;BME280;65705;51.032;13.790;2023-03-01T02:16:19;101703.91;;;-2.04;76.17
76762;BME280;65705;51.032;13.790;2023-03-01T02:18:45;101709.84;;;-2.02;75.85
76762;BME280;65705;51.032;13.790;2023-03-01T02:23:56;101694.41;;;-2.02;75.49
76762;BME280;65705;51.032;13.790;2023-03-01T02:26:36;101679.72;;;-1.99;75.31
76762;BME280;65705;51.032;13.790;2023-03-01T02:29:03;101673.75;;;-1.99;75.63
76762;BME280;65705;51.032;13.790;2023-03-01T02:31:31;101681.28;;;-1.93;75.32
76762;BME280;65705;51.032;13.790;2023-03-01T02:34:16;101680.47;;;-1.94;74.98
76762;BME280;65705;51.032;13.790;2023-03-01T02:36:47;101676.25;;;-1.96;74.70
76762;BME280;65705;51.032;13.790;2023-03-01T02:39:21;101674.81;;;-2.06;75.32
76762;BME280;65705;51.032;13.790;2023-03-01T02:41:50;101678.16;;;-2.03;74.94
76762;BME280;65705;51.032;13.790;2023-03-01T02:44:17;101677.28;;;-2.03;75.36
76762;BME280;65705;51.032;13.790;2023-03-01T02:46:46;101684.41;;;-2.13;75.37
76762;BME280;65705;51.032;13.790;2023-03-01T02:51:56;101671.50;;;-2.10;75.05
76762;BME280;65705;51.032;13.790;2023-03-01T02:56:56;101669.91;;;-2.16;74.91
76762;BME280;65705;51.032;13.790;2023-03-01T02:59:24;101670.03;;;-2.20;74.76
76762;BME280;65705;51.032;13.790;2023-03-01T03:01:52;101660.88;;;-2.30;74.40
76762;BME280;65705;51.032;13.790;2023-03-01T03:04:18;101661.84;;;-2.34;75.46
76762;BME280;65705;51.032;13.790;2023-03-01T03:06:49;101666.97;;;-2.34;75.47
76762;BME280;65705;51.032;13.790;2023-03-01T03:09:17;101663.53;;;-2.35;75.49
76762;BME280;65705;51.032;13.790;2023-03-01T03:11:44;101664.41;;;-2.34;75.28
76762;BME280;65705;51.032;13.790;2023-03-01T03:14:12;101672.03;;;-2.31;74.92
76762;BME280;65705;51.032;13.790;2023-03-01T03:16:41;101669.19;;;-2.54;75.36
76762;BME280;65705;51.032;13.790;2023-03-01T03:19:07;101665.63;;;-2.49;76.08
76762;BME280;65705;51.032;13.790;2023-03-01T03:21:33;101662.34;;;-2.54;75.60
76762;BME280;65705;51.032;13.790;2023-03-01T03:23:59;101662.28;;;-2.52;75.82
76762;BME280;65705;51.032;13.790;2023-03-01T03:26:25;101670.09;;;-2.55;75.87
76762;BME280;65705;51.032;13.790;2023-03-01T03:28:51;101657.81;;;-2.44;75.34
76762;BME280;65705;51.032;13.790;2023-03-01T03:31:17;101655.66;;;-2.61;76.51
76762;BME280;65705;51.032;13.790;2023-03-01T03:33:43;101653.81;;;-2.56;76.38
76762;BME280;65705;51.032;13.790;2023-03-01T03:36:09;101658.97;;;-2.56;76.24
76762;BME280;65705;51.032;13.790;2023-03-01T03:38:41;101660.72;;;-2.58;75.48
76762;BME280;65705;51.032;13.790;2023-03-01T03:41:07;101652.38;;;-2.66;75.83
76762;BME280;65705;51.032;13.790;2023-03-01T03:43:35;101649.75;;;-2.64;75.82
76762;BME280;65705;51.032;13.790;2023-03-01T03:46:03;101648.22;;;-2.71;76.33
76762;BME280;65705;51.032;13.790;2023-03-01T03:48:39;101643.00;;;-2.68;76.15
76762;BME280;65705;51.032;13.790;2023-03-01T03:51:06;101648.84;;;-2.62;75.75
76762;BME280;65705;51.032;13.790;2023-03-01T03:53:32;101648.72;;;-2.57;75.40
76762;BME280;65705;51.032;13.790;2023-03-01T03:55:59;101656.38;;;-2.56;75.26
76762;BME280;65705;51.032;13.790;2023-03-01T03:58:25;101653.06;;;-2.59;74.92
76762;BME280;65705;51.032;13.790;2023-03-01T04:00:54;101657.34;;;-2.58;75.06
76762;BME280;65705;51.032;13.790;2023-03-01T04:03:25;101663.41;;;-2.62;75.21
76762;BME280;65705;51.032;13.790;2023-03-01T04:05:51;101660.63;;;-2.53;74.26
76762;BME280;65705;51.032;13.790;2023-03-01T04:08:21;101669.25;;;-2.56;74.13
76762;BME280;65705;51.032;13.790;2023-03-01T04:10:50;101671.84;;;-2.57;74.63
76762;BME280;65705;51.032;13.790;2023-03-01T04:13:21;101671.00;;;-2.58;74.72
76762;BME280;65705;51.032;13.790;2023-03-01T04:15:51;101664.19;;;-2.59;74.53
76762;BME280;65705;51.032;13.790;2023-03-01T04:18:18;101670.09;;;-2.55;74.36
76762;BME280;65705;51.032;13.790;2023-03-01T04:20:45;101666.81;;;-2.60;75.03
76762;BME280;65705;51.032;13.790;2023-03-01T04:26:01;101653.19;;;-2.65;74.49
76762;BME280;65705;51.032;13.790;2023-03-01T04:28:31;101651.66;;;-2.71;74.62
76762;BME280;65705;51.032;13.790;2023-03-01T04:31:10;101654.53;;;-2.84;74.49
76762;BME280;65705;51.032;13.790;2023-03-01T04:33:51;101657.09;;;-2.84;74.97
76762;BME280;65705;51.032;13.790;2023-03-01T04:36:20;101650.00;;;-2.73;74.74
76762;BME280;65705;51.032;13.790;2023-03-01T04:38:46;101654.44;;;-2.81;74.55
76762;BME280;65705;51.032;13.790;2023-03-01T04:41:13;101658.72;;;-2.80;74.64
76762;BME280;65705;51.032;13.790;2023-03-01T04:43:39;101660.63;;;-2.87;74.26
76762;BME280;65705;51.032;13.790;2023-03-01T04:46:13;101651.97;;;-2.84;74.27
76762;BME280;65705;51.032;13.790;2023-03-01T04:48:41;101658.00;;;-2.85;74.27
76762;BME280;65705;51.032;13.790;2023-03-01T04:51:07;101655.44;;;-2.85;74.36
76762;BME280;65705;51.032;13.790;2023-03-01T04:53:34;101663.00;;;-2.81;74.33
76762;BME280;65705;51.032;13.790;2023-03-01T04:56:01;101661.25;;;-2.79;74.01
76762;BME280;65705;51.032;13.790;2023-03-01T04:58:27;101665.50;;;-2.76;74.33
76762;BME280;65705;51.032;13.790;2023-03-01T05:00:54;101664.69;;;-2.78;73.85
76762;BME280;65705;51.032;13.790;2023-03-01T05:03:20;101661.25;;;-2.79;74.12
76762;BME280;65705;51.032;13.790;2023-03-01T05:05:48;101661.47;;;-2.88;74.01
76762;BME280;65705;51.032;13.790;2023-03-01T05:08:14;101660.78;;;-2.94;74.61
76762;BME280;65705;51.032;13.790;2023-03-01T05:10:48;101660.91;;;-3.00;74.45
76762;BME280;65705;51.032;13.790;2023-03-01T05:13:15;101657.66;;;-3.07;74.51
76762;BME280;65705;51.032;13.790;2023-03-01T05:15:57;101663.59;;;-3.05;74.72
76762;BME280;65705;51.032;13.790;2023-03-01T05:18:24;101650.00;;;-3.10;75.10
76762;BME280;65705;51.032;13.790;2023-03-01T05:20:54;101649.97;;;-3.07;74.93
76762;BME280;65705;51.032;13.790;2023-03-01T05:23:22;101647.31;;;-3.04;74.87
76762;BME280;65705;51.032;13.790;2023-03-01T05:25:48;101649.91;;;-3.05;74.69
76762;BME280;65705;51.032;13.790;2023-03-01T05:28:15;101645.88;;;-3.15;74.72
76762;BME280;65705;51.032;13.790;2023-03-01T05:30:41;101650.28;;;-3.22;74.74
76762;BME280;65705;51.032;13.790;2023-03-01T05:33:07;101645.44;;;-3.34;75.71
76762;BME280;65705;51.032;13.790;2023-03-01T05:35:43;101642.19;;;-3.42;76.02
76762;BME280;65705;51.032;13.790;2023-03-01T05:38:10;101637.06;;;-3.41;76.31
76762;BME280;65705;51.032;13.790;2023-03-01T05:40:40;101637.06;;;-3.41;76.17
76762;BME280;65705;51.032;13.790;2023-03-01T05:43:06;101643.03;;;-3.42;75.53
76762;BME280;65705;51.032;13.790;2023-03-01T05:45:32;101641.66;;;-3.56;76.22
76762;BME280;65705;51.032;13.790;2023-03-01T05:48:00;101642.56;;;-3.59;76.40
76762;BME280;65705;51.032;13.790;2023-03-01T05:50:28;101643.34;;;-3.57;76.05
76762;BME280;65705;51.032;13.790;2023-03-01T05:52:58;101641.03;;;-3.67;76.55
76762;BME280;65705;51.032;13.790;2023-03-01T05:55:24;101639.16;;;-3.59;76.14
76762;BME280;65705;51.032;13.790;2023-03-01T05:57:50;101642.41;;;-3.53;76.30
76762;BME280;65705;51.032;13.790;2023-03-01T06:00:19;101650.78;;;-3.43;75.92
76762;BME280;65705;51.032;13.790;2023-03-01T06:02:45;101646.50;;;-3.43;75.71
76762;BME280;65705;51.032;13.790;2023-03-01T06:05:12;101648.22;;;-3.43;75.98
76762;BME280;65705;51.032;13.790;2023-03-01T06:07:38;101651.50;;;-3.38;75.26
76762;BME280;65705;51.032;13.790;2023-03-01T06:10:05;101657.00;;;-3.55;75.95
76762;BME280;65705;51.032;13.790;2023-03-01T06:12:32;101653.63;;;-3.57;76.69
76762;BME280;65705;51.032;13.790;2023-03-01T06:14:59;101650.19;;;-3.56;76.34
76762;BME280;65705;51.032;13.790;2023-03-01T06:17:25;101651.88;;;-3.53;76.11
76762;BME280;65705;51.032;13.790;2023-03-01T06:19:51;101645.88;;;-3.54;76.46
76762;BME280;65705;51.032;13.790;2023-03-01T06:22:17;101657.56;;;-3.41;75.69
76762;BME280;65705;51.032;13.790;2023-03-01T06:24:42;101656.56;;;-3.34;75.26
76762;BME280;65705;51.032;13.790;2023-03-01T06:27:08;101653.88;;;-3.29;74.94
76762;BME280;65705;51.032;13.790;2023-03-01T06:29:33;101663.16;;;-3.24;75.30
76762;BME280;65705;51.032;13.790;2023-03-01T06:31:59;101664.78;;;-3.19;74.78
76762;BME280;65705;51.032;13.790;2023-03-01T06:34:25;101663.69;;;-3.09;74.94
76762;BME280;65705;51.032;13.790;2023-03-01T06:36:51;101670.16;;;-2.93;74.26
76762;BME280;65705;51.032;13.790;2023-03-01T06:39:16;101665.44;;;-3.11;75.32
76762;BME280;65705;51.032;13.790;2023-03-01T06:41:43;101675.47;;;-2.99;75.02
76762;BME280;65705;51.032;13.790;2023-03-01T06:44:09;101669.56;;;-3.03;74.94
76762;BME280;65705;51.032;13.790;2023-03-01T06:46:35;101666.19;;;-3.06;75.10
76762;BME280;65705;51.032;13.790;2023-03-01T06:49:00;101675.56;;;-3.04;75.59
76762;BME280;65705;51.032;13.790;2023-03-01T06:51:26;101671.88;;;-2.92;75.35
76762;BME280;65705;51.032;13.790;2023-03-01T06:53:52;101666.56;;;-2.86;74.99
76762;BME280;65705;51.032;13.790;2023-03-01T06:56:17;101669.34;;;-2.95;75.37
76762;BME280;65705;51.032;13.790;2023-03-01T06:58:43;101672.78;;;-2.95;75.11
76762;BME280;65705;51.032;13.790;2023-03-01T07:01:09;101665.75;;;-2.87;74.87
76762;BME280;65705;51.032;13.790;2023-03-01T07:03:35;101662.25;;;-2.84;75.10
76762;BME280;65705;51.032;13.790;2023-03-01T07:06:00;101672.47;;;-2.48;81.88
76762;BME280;65705;51.032;13.790;2023-03-01T07:08:26;101662.34;;;-2.22;79.27
76762;BME280;65705;51.032;13.790;2023-03-01T07:10:58;101648.59;;;-2.19;74.89
76762;BME280;65705;51.032;13.790;2023-03-01T07:13:24;101661.50;;;-2.21;74.31
76762;BME280;65705;51.032;13.790;2023-03-01T07:15:50;101655.53;;;-2.23;74.25
76762;BME280;65705;51.032;13.790;2023-03-01T07:18:16;101654.66;;;-2.22;73.25
76762;BME280;65705;51.032;13.790;2023-03-01T07:20:42;101651.81;;;-2.13;73.56
76762;BME280;65705;51.032;13.790;2023-03-01T07:23:07;101643.00;;;-1.73;77.75
76762;BME280;65705;51.032;13.790;2023-03-01T07:25:33;101641.75;;;-1.60;76.20
76762;BME280;65705;51.032;13.790;2023-03-01T07:27:59;101640.16;;;-1.35;75.22
76762;BME280;65705;51.032;13.790;2023-03-01T07:30:24;101643.19;;;-1.23;70.98
76762;BME280;65705;51.032;13.790;2023-03-01T07:32:57;101634.94;;;-1.34;70.50
76762;BME280;65705;51.032;13.790;2023-03-01T07:35:25;101641.53;;;-1.53;69.92
76762;BME280;65705;51.032;13.790;2023-03-01T07:37:52;101639.13;;;-1.59;70.83
76762;BME280;65705;51.032;13.790;2023-03-01T07:40:18;101643.59;;;-1.64;71.34
76762;BME280;65705;51.032;13.790;2023-03-01T07:42:45;101639.19;;;-1.60;71.09
76762;BME280;65705;51.032;13.790;2023-03-01T07:45:11;101639.91;;;-1.55;71.43
76762;BME280;65705;51.032;13.790;2023-03-01T07:47:37;101634.00;;;-1.59;71.28
76762;BME280;65705;51.032;13.790;2023-03-01T07:50:03;101639.25;;;-1.62;71.34
76762;BME280;65705;51.032;13.790;2023-03-01T07:52:29;101634.03;;;-1.60;70.94
76762;BME280;65705;51.032;13.790;2023-03-01T07:54:56;101639.13;;;-1.59;71.04
76762;BME280;65705;51.032;13.790;2023-03-01T07:57:22;101638.44;;;-1.64;71.16
76762;BME280;65705;51.032;13.790;2023-03-01T07:59:48;101631.25;;;-1.53;71.16
76762;BME280;65705;51.032;13.790;2023-03-01T08:02:13;101626.00;;;-1.50;71.18
76762;BME280;65705;51.032;13.790;2023-03-01T08:04:41;101616.50;;;-1.48;70.69
76762;BME280;65705;51.032;13.790;2023-03-01T08:07:07;101616.19;;;-1.37;70.94
76762;BME280;65705;51.032;13.790;2023-03-01T08:09:36;101608.50;;;-1.39;70.78
76762;BME280;65705;51.032;13.790;2023-03-01T08:12:04;101609.34;;;-1.38;71.15
76762;BME280;65705;51.032;13.790;2023-03-01T08:14:33;101603.16;;;-1.33;70.85
76762;BME280;65705;51.032;13.790;2023-03-01T08:16:59;101595.25;;;-1.27;70.59
76762;BME280;65705;51.032;13.790;2023-03-01T08:19:25;101599.59;;;-1.29;70.98
76762;BME280;65705;51.032;13.790;2023-03-01T08:21:51;101601.94;;;-1.21;70.40
76762;BME280;65705;51.032;13.790;2023-03-01T08:24:16;101603.44;;;-1.14;70.18
76762;BME280;65705;51.032;13.790;2023-03-01T08:26:42;101600.97;;;-1.17;70.82
76762;BME280;65705;51.032;13.790;2023-03-01T08:29:07;101607.78;;;-1.16;70.56
76762;BME280;65705;51.032;13.790;2023-03-01T08:31:36;101601.00;;;-1.19;71.15
76762;BME280;65705;51.032;13.790;2023-03-01T08:34:07;101598.38;;;-1.17;70.73
76762;BME280;65705;51.032;13.790;2023-03-01T08:36:37;101600.72;;;-1.10;70.40
76762;BME280;65705;51.032;13.790;2023-03-01T08:39:04;101595.53;;;-1.08;70.45
76762;BME280;65705;51.032;13.790;2023-03-01T08:41:30;101601.19;;;-0.98;70.64
76762;BME280;65705;51.032;13.790;2023-03-01T08:43:55;101592.72;;;-1.02;70.22
76762;BME280;65705;51.032;13.790;2023-03-01T08:46:28;101591.06;;;-1.03;70.41
76762;BME280;65705;51.032;13.790;2023-03-01T08:48:54;101595.00;;;-0.93;70.06
76762;BME280;65705;51.032;13.790;2023-03-01T08:51:21;101592.91;;;-0.82;70.24
76762;BME280;65705;51.032;13.790;2023-03-01T08:53:47;101596.09;;;-0.74;69.47
76762;BME280;65705;51.032;13.790;2023-03-01T08:56:14;101587.09;;;-0.62;69.40
76762;BME280;65705;51.032;13.790;2023-03-01T08:58:42;101584.53;;;-0.62;69.20
76762;BME280;65705;51.032;13.790;2023-03-01T09:01:10;101589.38;;;-0.53;68.87
76762;BME280;65705;51.032;13.790;2023-03-01T09:03:36;101588.47;;;-0.52;69.23
76762;BME280;65705;51.032;13.790;2023-03-01T09:06:04;101592.63;;;-0.48;69.31
76762;BME280;65705;51.032;13.790;2023-03-01T09:08:31;101584.13;;;-0.50;69.55
76762;BME280;65705;51.032;13.790;2023-03-01T09:11:01;101583.22;;;-0.49;69.86
76762;BME280;65705;51.032;13.790;2023-03-01T09:13:28;101578.59;;;-0.40;69.73
76762;BME280;65705;51.032;13.790;2023-03-01T09:15:57;101576.81;;;-0.38;69.16
76762;BME280;65705;51.032;13.790;2023-03-01T09:18:23;101563.84;;;-0.36;69.33
76762;BME280;65705;51.032;13.790;2023-03-01T09:20:49;101557.63;;;-0.31;69.45
76762;BME280;65705;51.032;13.790;2023-03-01T09:23:14;101559.09;;;-0.24;69.44
76762;BME280;65705;51.032;13.790;2023-03-01T09:25:40;101550.84;;;-0.10;68.40
76762;BME280;65705;51.032;13.790;2023-03-01T09:28:06;101540.84;;;0.04;67.89
76762;BME280;65705;51.032;13.790;2023-03-01T09:30:32;101544.09;;;0.09;67.99
76762;BME280;65705;51.032;13.790;2023-03-01T09:32:57;101547.41;;;0.13;68.35
76762;BME280;65705;51.032;13.790;2023-03-01T09:35:23;101542.19;;;0.14;67.91
76762;BME280;65705;51.032;13.790;2023-03-01T09:37:49;101543.75;;;0.18;67.86
76762;BME280;65705;51.032;13.790;2023-03-01T09:40:21;101539.88;;;0.30;67.47
76762;BME280;65705;51.032;13.790;2023-03-01T09:45:34;101542.41;;;0.53;67.20
76762;BME280;65705;51.032;13.790;2023-03-01T09:48:01;101546.25;;;0.64;67.02
76762;BME280;65705;51.032;13.790;2023-03-01T09:50:34;101539.94;;;0.71;66.67
76762;BME280;65705;51.032;13.790;2023-03-01T09:53:09;101538.72;;;0.80;66.20
76762;BME280;65705;51.032;13.790;2023-03-01T09:55:51;101533.88;;;0.92;65.62
76762;BME280;65705;51.032;13.790;2023-03-01T09:59:20;101535.38;;;0.98;65.94
76762;BME280;65705;51.032;13.790;2023-03-01T10:01:44;101531.81;;;1.00;65.75
76762;BME280;65705;51.032;13.790;2023-03-01T10:04:49;101530.78;;;1.04;65.60
76762;BME280;65705;51.032;13.790;2023-03-01T10:07:45;101529.44;;;1.16;65.76
76762;BME280;65705;51.032;13.790;2023-03-01T10:10:36;101527.34;;;1.24;64.88
76762;BME280;65705;51.032;13.790;2023-03-01T10:13:16;101523.59;;;1.31;64.73
76762;BME280;65705;51.032;13.790;2023-03-01T10:15:47;101529.47;;;1.35;64.61
76762;BME280;65705;51.032;13.790;2023-03-01T10:18:19;101532.53;;;1.44;64.51
76762;BME280;65705;51.032;13.790;2023-03-01T10:20:53;101533.88;;;1.53;63.70
76762;BME280;65705;51.032;13.790;2023-03-01T10:23:19;101533.34;;;1.65;63.75
76762;BME280;65705;51.032;13.790;2023-03-01T10:28:53;101525.19;;;1.74;63.66
76762;BME280;65705;51.032;13.790;2023-03-01T10:31:26;101528.41;;;1.79;63.32
76762;BME280;65705;51.032;13.790;2023-03-01T10:33:55;101522.03;;;1.86;63.53
76762;BME280;65705;51.032;13.790;2023-03-01T10:36:24;101516.72;;;1.89;63.18
76762;BME280;65705;51.032;13.790;2023-03-01T10:38:53;101517.34;;;1.94;63.11
76762;BME280;65705;51.032;13.790;2023-03-01T10:41:21;101507.63;;;1.99;62.92
76762;BME280;65705;51.032;13.790;2023-03-01T10:43:58;101508.19;;;2.05;62.80
76762;BME280;65705;51.032;13.790;2023-03-01T10:46:34;101504.50;;;2.28;62.21
76762;BME280;65705;51.032;13.790;2023-03-01T10:49:19;101494.41;;;2.41;61.74
76762;BME280;65705;51.032;13.790;2023-03-01T10:51:48;101502.34;;;2.38;61.85
76762;BME280;65705;51.032;13.790;2023-03-01T10:54:27;101498.63;;;2.43;61.67
76762;BME280;65705;51.032;13.790;2023-03-01T10:57:27;101483.75;;;2.47;61.54
76762;BME280;65705;51.032;13.790;2023-03-01T11:00:10;101482.84;;;2.48;61.59
76762;BME280;65705;51.032;13.790;2023-03-01T11:02:40;101477.00;;;2.61;60.71
76762;BME280;65705;51.032;13.790;2023-03-01T11:10:21;101462.94;;;2.99;59.07
76762;BME280;65705;51.032;13.790;2023-03-01T11:12:48;101467.28;;;3.16;58.85
76762;BME280;65705;51.032;13.790;2023-03-01T11:15:27;101463.72;;;3.18;58.76
76762;BME280;65705;51.032;13.790;2023-03-01T11:17:55;101462.09;;;3.16;58.18
76762;BME280;65705;51.032;13.790;2023-03-01T11:20:37;101461.13;;;3.18;58.02
76762;BME280;65705;51.032;13.790;2023-03-01T11:23:09;101457.88;;;3.31;57.81
76762;BME280;65705;51.032;13.790;2023-03-01T11:25:39;101458.25;;;3.40;57.35
76762;BME280;65705;51.032;13.790;2023-03-01T11:28:12;101457.09;;;3.46;57.27
76762;BME280;65705;51.032;13.790;2023-03-01T11:33:53;101460.13;;;3.69;55.42
76762;BME280;65705;51.032;13.790;2023-03-01T11:36:44;101452.41;;;3.68;55.30
76762;BME280;65705;51.032;13.790;2023-03-01T11:41:48;101457.81;;;3.96;53.56
76762;BME280;65705;51.032;13.790;2023-03-01T11:44:24;101453.53;;;3.95;53.27
76762;BME280;65705;51.032;13.790;2023-03-01T12:03:46;101444.97;;;4.24;50.23
76762;BME280;65705;51.032;13.790;2023-03-01T12:20:25;101422.38;;;4.40;50.86
76762;BME280;65705;51.032;13.790;2023-03-01T12:28:35;101414.53;;;4.26;52.49
76762;BME280;65705;51.032;13.790;2023-03-01T12:33:59;101419.97;;;4.21;53.16
76762;BME280;65705;51.032;13.790;2023-03-01T12:47:23;101392.47;;;4.33;53.67
76762;BME280;65705;51.032;13.790;2023-03-01T12:50:11;101395.31;;;4.28;53.66
76762;BME280;65705;51.032;13.790;2023-03-01T12:52:54;101390.50;;;4.22;54.78
76762;BME280;65705;51.032;13.790;2023-03-01T13:01:03;101377.25;;;4.41;54.29
76762;BME280;65705;51.032;13.790;2023-03-01T13:09:23;101375.84;;;4.65;52.21
76762;BME280;65705;51.032;13.790;2023-03-01T13:11:53;101372.59;;;4.62;52.73
76762;BME280;65705;51.032;13.790;2023-03-01T13:16:49;101361.13;;;4.94;51.33
76762;BME280;65705;51.032;13.790;2023-03-01T13:19:19;101363.41;;;4.84;51.67
76762;BME280;65705;51.032;13.790;2023-03-01T13:21:47;101363.06;;;4.76;51.36
76762;BME280;65705;51.032;13.790;2023-03-01T13:24:37;101366.59;;;4.89;51.45
76762;BME280;65705;51.032;13.790;2023-03-01T13:32:27;101365.13;;;4.99;51.68
76762;BME280;65705;51.032;13.790;2023-03-01T13:34:56;101367.06;;;4.96;51.49
76762;BME280;65705;51.032;13.790;2023-03-01T13:37:27;101368.56;;;5.14;49.43
76762;BME280;65705;51.032;13.790;2023-03-01T13:39:56;101362.31;;;5.16;48.94
76762;BME280;65705;51.032;13.790;2023-03-01T13:45:05;101360.09;;;5.24;49.75
76762;BME280;65705;51.032;13.790;2023-03-01T13:47:38;101357.75;;;5.20;50.13
76762;BME280;65705;51.032;13.790;2023-03-01T13:50:06;101354.69;;;5.27;50.38
76762;BME280;65705;51.032;13.790;2023-03-01T13:52:40;101359.97;;;5.40;49.34
76762;BME280;65705;51.032;13.790;2023-03-01T13:55:19;101357.47;;;5.38;49.33
76762;BME280;65705;51.032;13.790;2023-03-01T13:57:49;101364.25;;;5.27;49.24
76762;BME280;65705;51.032;13.790;2023-03-01T14:00:35;101350.88;;;5.19;49.22
76762;BME280;65705;51.032;13.790;2023-03-01T14:03:14;101355.09;;;5.21;49.66
76762;BME280;65705;51.032;13.790;2023-03-01T14:05:44;101350.22;;;5.29;50.03
76762;BME280;65705;51.032;13.790;2023-03-01T14:08:29;101344.09;;;5.30;49.74
76762;BME280;65705;51.032;13.790;2023-03-01T14:11:06;101343.59;;;5.38;49.22
76762;BME280;65705;51.032;13.790;2023-03-01T14:19:16;101332.97;;;5.55;49.81
76762;BME280;65705;51.032;13.790;2023-03-01T14:21:43;101325.06;;;5.57;50.25
76762;BME280;65705;51.032;13.790;2023-03-01T14:24:17;101329.75;;;5.52;49.21
76762;BME280;65705;51.032;13.790;2023-03-01T14:26:44;101330.44;;;5.68;47.83
76762;BME280;65705;51.032;13.790;2023-03-01T14:29:55;101320.41;;;5.62;47.00
76762;BME280;65705;51.032;13.790;2023-03-01T14:32:25;101323.75;;;5.64;46.81
76762;BME280;65705;51.032;13.790;2023-03-01T14:34:52;101326.59;;;5.73;47.01
76762;BME280;65705;51.032;13.790;2023-03-01T14:37:32;101323.53;;;5.81;47.05
76762;BME280;65705;51.032;13.790;2023-03-01T14:40:00;101325.56;;;5.76;47.20
76762;BME280;65705;51.032;13.790;2023-03-01T14:42:29;101323.91;;;5.75;46.83
76762;BME280;65705;51.032;13.790;2023-03-01T14:44:57;101319.78;;;5.85;47.17